Time;durP1;ratioP1;P1;durP2;ratioP2;P2;SDS_P1;SDS_P2;PMS_P1;PMS_P2;Temp;Humidity;BMP_temperature;BMP_pressure;BME280_temperature;BME280_humidity;BME280_pressure;Samples;Min_cycle;Max_cycle;Signal;HPM_P1;HPM_P2
2023/12/31 00:00:17;;;;;;;7.63;3.90;;;;;;;-141.84;98.47;89461.13;5045604;28;20229;-59
2023/12/31 00:02:46;;;;;;;5.67;3.23;;;;;;;-141.84;94.93;79941.19;5050986;28;20232;-60
2023/12/31 00:05:14;;;;;;;6.80;3.50;;;;;;;-141.84;93.46;74134.56;5049456;28;20221;-59
2023/12/31 00:07:43;;;;;;;7.17;3.83;;;;;;;-141.84;93.70;73607.09;5047657;28;20271;-60
2023/12/31 00:10:12;;;;;;;5.63;3.40;;;;;;;-141.84;92.41;69389.94;5051901;28;20221;-60
2023/12/31 00:12:41;;;;;;;6.67;3.50;;;;;;;-141.84;93.24;71497.94;5049178;28;20221;-60
2023/12/31 00:15:11;;;;;;;5.17;3.30;;;;;;;-141.84;94.90;77036.81;5050695;28;20240;-60
2023/12/31 00:17:39;;;;;;;6.03;3.53;;;;;;;-141.84;95.08;78092.72;5055058;28;20308;-59
2023/12/31 00:20:09;;;;;;;5.00;3.07;;;;;;;-141.84;95.33;78356.72;5060202;28;20217;-59
2023/12/31 00:22:40;;;;;;;5.50;2.90;;;;;;;-141.84;96.38;82319.06;5060711;28;20661;-59
2023/12/31 00:25:10;;;;;;;7.20;3.60;;;;;;;-141.84;97.99;86814.44;5059449;28;20212;-59
2023/12/31 00:27:38;;;;;;;4.80;3.00;;;;;;;-141.84;99.05;89990.66;5058871;28;20285;-59
2023/12/31 00:30:08;;;;;;;8.67;3.20;;;;;;;-141.84;94.97;79941.19;5059109;28;20220;-59
2023/12/31 00:32:38;;;;;;;4.70;3.10;;;;;;;-141.84;94.85;77564.72;5057653;28;20267;-59
2023/12/31 00:35:07;;;;;;;6.77;2.77;;;;;;;-141.84;96.77;83376.34;5059070;28;20286;-58
2023/12/31 00:37:35;;;;;;;5.93;2.60;;;;;;;-141.84;96.16;81790.53;5056134;28;20198;-59
2023/12/31 00:40:05;;;;;;;5.63;2.60;;;;;;;-141.84;96.42;83112.00;5059835;28;20216;-59
2023/12/31 00:42:35;;;;;;;5.00;2.77;;;;;;;-141.84;94.14;75453.50;5057450;28;20735;-60
2023/12/31 00:45:04;;;;;;;5.90;2.87;;;;;;;-141.84;92.14;68336.31;5062941;28;20229;-59
2023/12/31 00:47:34;;;;;;;5.70;2.63;;;;;;;-141.84;94.09;74398.31;5056746;28;20217;-59
2023/12/31 00:50:04;;;;;;;7.00;3.27;;;;;;;-141.84;94.01;74134.56;5051266;28;20765;-59
2023/12/31 00:52:32;;;;;;;6.00;3.43;;;;;;;-141.84;92.15;68072.97;5053472;28;20304;-60
2023/12/31 00:55:01;;;;;;;4.80;3.20;;;;;;;-141.84;92.60;69389.94;5051750;28;20200;-59
2023/12/31 00:57:30;;;;;;;5.03;2.73;;;;;;;-141.84;94.91;75189.69;5050566;28;20656;-60
2023/12/31 00:59:58;;;;;;;4.37;2.73;;;;;;;-141.84;97.60;85491.75;5056547;28;20707;-59
2023/12/31 01:02:27;;;;;;;6.57;3.00;;;;;;;-141.84;99.93;91314.81;5058394;28;20304;-60
2023/12/31 01:04:55;;;;;;;5.53;3.20;;;;;;;-141.84;100.00;98207.50;5053509;28;20287;-59
2023/12/31 01:07:25;;;;;;;3.33;2.83;;;;;;;-141.84;100.00;102455.00;5053305;28;20344;-59
2023/12/31 01:09:54;;;;;;;5.20;2.47;;;;;;;-141.84;100.00;103517.56;5050368;28;20260;-59
2023/12/31 01:12:22;;;;;;;4.30;2.70;;;;;;;-141.84;100.00;105377.72;5041576;28;20647;-59
2023/12/31 01:14:51;;;;;;;3.30;2.40;;;;;;;-141.84;100.00;102189.38;5048222;28;20221;-59
2023/12/31 01:17:19;;;;;;;4.20;2.93;;;;;;;-141.84;100.00;99799.78;5052268;28;20256;-59
2023/12/31 01:19:48;;;;;;;3.73;2.67;;;;;;;-141.84;100.00;98738.19;5050560;28;20280;-59
2023/12/31 01:22:17;;;;;;;6.73;2.97;;;;;;;-141.84;99.71;93964.47;5057452;28;20722;-59
2023/12/31 01:24:46;;;;;;;4.13;2.90;;;;;;;-141.84;97.60;87872.91;5049836;28;20271;-58
2023/12/31 01:27:15;;;;;;;4.43;2.50;;;;;;;-141.84;95.11;80469.50;5050233;28;20221;-58
2023/12/31 01:29:43;;;;;;;4.47;2.40;;;;;;;-141.84;93.80;74398.31;5054548;28;20257;-59
2023/12/31 01:32:12;;;;;;;3.70;2.20;;;;;;;-141.84;95.30;79677.06;5050865;28;20232;-58
2023/12/31 01:34:40;;;;;;;4.30;2.40;;;;;;;-141.84;96.19;82054.78;5049932;28;20225;-59
2023/12/31 01:37:09;;;;;;;3.87;2.60;;;;;;;-141.84;92.04;68863.09;5050398;28;20232;-58
2023/12/31 01:39:38;;;;;;;3.43;2.40;;;;;;;-141.84;92.96;69916.81;5049685;28;20252;-59
2023/12/31 01:42:08;;;;;;;3.60;2.20;;;;;;;-141.84;94.24;76508.97;5049932;28;20217;-58
2023/12/31 01:44:36;;;;;;;4.30;2.40;;;;;;;-141.84;91.88;66493.19;5049097;28;20248;-59
2023/12/31 01:47:05;;;;;;;3.43;2.23;;;;;;;-141.84;93.15;69916.81;5044324;28;20229;-59
2023/12/31 01:49:34;;;;;;;3.53;2.20;;;;;;;-141.84;92.78;70180.31;5053967;28;20197;-59
2023/12/31 01:52:04;;;;;;;3.00;2.10;;;;;;;-141.84;90.77;63335.53;5050175;28;20224;-59
2023/12/31 01:54:32;;;;;;;3.60;2.20;;;;;;;-141.84;90.27;55714.84;5050695;28;20259;-58
2023/12/31 01:57:01;;;;;;;5.20;2.23;;;;;;;-141.84;90.46;59129.22;5049624;28;20291;-59
2023/12/31 01:59:31;;;;;;;6.17;2.60;;;;;;;-141.84;91.04;60968.94;5049236;28;20217;-58
2023/12/31 02:02:00;;;;;;;4.90;2.20;;;;;;;-141.84;89.29;55189.84;5049305;28;20696;-59
2023/12/31 02:04:34;;;;;;;4.33;2.20;;;;;;;-141.84;90.30;58603.75;5050213;28;20252;-59
2023/12/31 02:07:03;;;;;;;2.50;1.97;;;;;;;-141.84;92.56;67546.31;5050015;28;20214;-58
2023/12/31 02:09:32;;;;;;;4.10;2.03;;;;;;;-141.84;93.19;72025.13;5048041;28;20735;-58
2023/12/31 02:12:01;;;;;;;4.40;2.27;;;;;;;-141.84;89.69;54664.88;5052142;28;21542;-58
2023/12/31 02:14:30;;;;;;;3.83;2.30;;;;;;;-141.84;88.36;47846.78;5052767;28;20252;-58
2023/12/31 02:16:59;;;;;;;3.57;2.13;;;;;;;-141.84;89.05;52041.16;5055191;28;20233;-59
2023/12/31 02:19:27;;;;;;;3.90;2.30;;;;;;;-141.84;87.58;45227.56;5051147;28;20662;-59
2023/12/31 02:21:56;;;;;;;3.90;1.90;;;;;;;-141.84;87.10;39406.06;5049459;28;20229;-59
2023/12/31 02:24:32;;;;;;;2.93;2.00;;;;;;;-141.84;86.96;37868.31;5052503;28;20271;-59
2023/12/31 02:27:02;;;;;;;4.67;2.20;;;;;;;-141.84;90.37;55714.84;5052061;28;20216;-58
2023/12/31 02:29:30;;;;;;;3.00;2.20;;;;;;;-141.84;93.14;70707.31;5049528;28;20217;-58
2023/12/31 02:31:59;;;;;;;4.93;2.10;;;;;;;-141.84;91.28;63335.53;5049281;28;20252;-58
2023/12/31 02:34:27;;;;;;;5.10;2.30;;;;;;;-141.84;92.17;65177.19;5041761;28;20221;-58
2023/12/31 02:36:56;;;;;;;3.17;2.23;;;;;;;-141.84;90.70;62020.59;5058300;28;20292;-58
2023/12/31 02:39:25;;;;;;;3.50;2.17;;;;;;;-141.84;89.95;55189.84;5051002;28;20882;-58
2023/12/31 02:41:54;;;;;;;3.23;2.60;;;;;;;-141.84;93.44;69916.81;5057336;28;20296;-59
2023/12/31 02:44:24;;;;;;;4.27;2.60;;;;;;;-141.84;95.06;77300.78;5056922;28;20218;-59
2023/12/31 02:46:52;;;;;;;4.60;2.70;;;;;;;-141.84;95.62;79941.19;5063809;28;20224;-59
2023/12/31 02:49:21;;;;;;;4.70;2.80;;;;;;;-141.84;95.51;78620.75;5063017;28;20215;-59
2023/12/31 02:51:49;;;;;;;5.53;2.80;;;;;;;-141.84;96.58;83112.00;5059937;28;20225;-60
2023/12/31 02:54:18;;;;;;;6.57;2.53;;;;;;;-141.84;95.88;80997.84;5063109;28;20247;-59
2023/12/31 02:56:46;;;;;;;4.53;2.10;;;;;;;-141.84;95.44;78884.81;5058668;28;20370;-59
2023/12/31 02:59:15;;;;;;;3.97;2.00;;;;;;;-141.84;96.17;81262.06;5060184;28;20227;-59
2023/12/31 03:01:44;;;;;;;4.90;1.90;;;;;;;-141.84;95.66;80205.34;5058052;28;20185;-59
2023/12/31 03:04:13;;;;;;;4.30;2.17;;;;;;;-141.84;91.57;66229.97;5058966;28;20242;-59
2023/12/31 03:06:42;;;;;;;4.60;2.10;;;;;;;-141.84;91.78;64387.81;5057274;28;20221;-59
2023/12/31 03:09:10;;;;;;;3.23;1.90;;;;;;;-141.84;92.10;66493.19;5065227;28;20254;-59
2023/12/31 03:11:39;;;;;;;4.37;2.10;;;;;;;-141.84;89.32;56502.53;5058870;28;20222;-60
2023/12/31 03:14:07;;;;;;;3.37;1.90;;;;;;;-141.84;87.83;45227.56;5054334;28;20304;-59
2023/12/31 03:16:36;;;;;;;3.40;1.83;;;;;;;-141.84;89.52;53615.19;5055744;28;20212;-60
2023/12/31 03:19:07;;;;;;;4.20;2.00;;;;;;;-141.84;90.57;58603.75;5060046;28;20189;-62
2023/12/31 03:21:35;;;;;;;2.90;1.53;;;;;;;-141.84;90.59;59917.56;5053446;28;20681;-59
2023/12/31 03:24:04;;;;;;;2.30;1.87;;;;;;;-141.84;86.53;40411.13;5056265;28;20653;-59
2023/12/31 03:26:33;;;;;;;2.63;1.70;;;;;;;-141.84;85.83;31833.41;5055110;28;20721;-59
2023/12/31 03:29:01;;;;;;;3.10;1.77;;;;;;;-141.84;84.92;28326.50;5057818;28;20303;-59
2023/12/31 03:31:30;;;;;;;3.77;1.63;;;;;;;-141.84;86.92;37427.31;5055254;28;20201;-59
2023/12/31 03:33:58;;;;;;;2.90;1.60;;;;;;;-141.84;87.35;39845.22;5058357;28;20229;-59
2023/12/31 03:36:29;;;;;;;2.67;1.50;;;;;;;-141.84;87.37;41502.28;5058665;28;20283;-59
2023/12/31 03:38:57;;;;;;;5.07;2.03;;;;;;;-141.84;88.43;46013.16;5053676;28;20229;-59
2023/12/31 03:41:26;;;;;;;3.20;1.70;;;;;;;-141.84;89.72;54140.00;5053127;28;20626;-60
2023/12/31 03:43:54;;;;;;;2.30;1.80;;;;;;;-141.84;90.17;57027.72;5042317;28;20674;-62
2023/12/31 03:46:24;;;;;;;1.97;1.50;;;;;;;-141.84;90.47;57027.72;5051229;28;20285;-59
2023/12/31 03:48:52;;;;;;;2.80;1.67;;;;;;;-141.84;89.51;54402.44;5058283;28;20615;-59
2023/12/31 03:51:21;;;;;;;2.93;1.80;;;;;;;-141.84;88.14;45751.28;5050912;28;20225;-59
2023/12/31 03:53:50;;;;;;;2.23;1.67;;;;;;;-141.84;89.27;51254.38;5050415;28;20651;-59
2023/12/31 03:56:19;;;;;;;2.27;1.47;;;;;;;-141.84;88.80;49419.16;5054424;28;20307;-59
2023/12/31 03:58:47;;;;;;;3.20;1.50;;;;;;;-141.84;87.52;42871.75;5051052;28;20276;-60
2023/12/31 04:01:16;;;;;;;3.50;1.70;;;;;;;-141.84;88.37;47322.81;5050081;28;20224;-59
2023/12/31 04:03:45;;;;;;;2.20;1.40;;;;;;;-141.84;88.47;47846.78;5050658;28;20637;-59
2023/12/31 04:06:13;;;;;;;3.23;1.63;;;;;;;-141.84;88.56;47322.81;5058641;28;20351;-59
2023/12/31 04:08:42;;;;;;;3.10;1.70;;;;;;;-141.84;88.54;48632.88;5050636;28;20309;-59
2023/12/31 04:11:12;;;;;;;3.77;1.33;;;;;;;-141.84;88.92;50467.75;5042264;28;20275;-59
2023/12/31 04:13:42;;;;;;;2.23;1.37;;;;;;;-141.84;87.76;43395.16;5050432;28;20304;-59
2023/12/31 04:16:11;;;;;;;1.90;1.40;;;;;;;-141.84;87.47;41943.72;5050531;28;20653;-59
2023/12/31 04:18:39;;;;;;;1.57;1.47;;;;;;;-141.84;88.04;44703.94;5050476;28;20311;-59
2023/12/31 04:21:08;;;;;;;1.40;1.30;;;;;;;-141.84;88.90;48894.97;5050280;28;20218;-58
2023/12/31 04:23:36;;;;;;;2.97;1.77;;;;;;;-141.84;88.40;46275.03;5050493;28;20320;-59
2023/12/31 04:26:07;;;;;;;3.30;1.73;;;;;;;-141.84;85.77;31827.28;5050325;28;20302;-59
2023/12/31 04:28:37;;;;;;;2.17;1.53;;;;;;;-141.84;85.06;27947.69;5050620;28;20193;-59
2023/12/31 04:31:08;;;;;;;2.60;1.53;;;;;;;-141.84;84.90;27546.50;5050590;28;20197;-59
2023/12/31 04:33:37;;;;;;;3.17;1.40;;;;;;;-141.84;85.70;30149.88;5012214;28;1091097;-59
2023/12/31 04:36:06;;;;;;;2.27;1.50;;;;;;;-141.84;87.99;42610.09;5050972;28;20573;-59
2023/12/31 04:38:35;;;;;;;2.60;1.30;;;;;;;-141.84;87.05;38090.84;5051273;28;20224;-59
2023/12/31 04:41:05;;;;;;;4.57;1.50;;;;;;;-141.84;87.05;37949.97;5051086;28;20288;-59
2023/12/31 04:43:34;;;;;;;4.20;1.53;;;;;;;-141.84;88.80;47060.84;5042770;28;20879;-59
2023/12/31 04:46:07;;;;;;;2.47;1.70;;;;;;;-141.84;89.84;54140.00;5051198;28;20217;-59
2023/12/31 04:48:40;;;;;;;2.60;1.30;;;;;;;-141.84;90.12;56502.53;5051256;28;20225;-58
2023/12/31 04:51:08;;;;;;;2.97;1.53;;;;;;;-141.84;90.41;57815.66;5042853;28;20279;-59
2023/12/31 04:53:37;;;;;;;2.50;1.27;;;;;;;-141.84;91.23;62283.53;5051037;28;20651;-59
2023/12/31 04:56:07;;;;;;;2.43;1.33;;;;;;;-141.84;91.94;65177.19;5050779;28;20298;-60
2023/12/31 04:58:35;;;;;;;2.63;1.53;;;;;;;-141.84;92.12;65966.75;5044327;28;20197;-60
2023/12/31 05:01:10;;;;;;;2.60;1.63;;;;;;;-141.84;92.30;65966.75;5051074;28;20320;-62
2023/12/31 05:03:39;;;;;;;4.80;2.17;;;;;;;-141.84;91.25;63335.53;5050287;28;20231;-60
2023/12/31 05:06:08;;;;;;;3.33;1.60;;;;;;;-141.84;91.69;63072.50;5050309;28;20245;-60
2023/12/31 05:08:36;;;;;;;2.87;1.60;;;;;;;-141.84;92.05;65177.19;5050771;28;20221;-60
2023/12/31 05:11:05;;;;;;;2.50;1.90;;;;;;;-141.84;92.09;65703.56;5048732;28;20328;-60
2023/12/31 05:13:34;;;;;;;1.83;1.57;;;;;;;-141.84;92.30;67546.31;5047684;28;20554;-60
2023/12/31 05:16:03;;;;;;;2.30;1.53;;;;;;;-141.84;90.22;57815.66;5043798;28;20256;-60
2023/12/31 05:18:33;;;;;;;2.23;1.60;;;;;;;-141.84;90.26;57290.34;5043587;28;20221;-59
2023/12/31 05:21:03;;;;;;;2.43;1.60;;;;;;;-141.84;88.88;51516.59;5043911;28;20218;-59
2023/12/31 05:23:31;;;;;;;2.40;1.70;;;;;;;-141.84;89.65;53615.19;5045014;28;20304;-59
2023/12/31 05:26:00;;;;;;;3.00;1.90;;;;;;;-141.84;91.05;60443.22;5044626;28;20233;-59
2023/12/31 05:28:28;;;;;;;2.83;1.77;;;;;;;-141.84;93.15;69389.94;5042480;28;20225;-60
2023/12/31 05:30:57;;;;;;;3.20;1.80;;;;;;;-141.84;94.73;75189.69;5041506;28;20231;-60
2023/12/31 05:33:26;;;;;;;2.30;1.53;;;;;;;-141.84;95.60;78620.75;5046060;28;20229;-60
2023/12/31 05:35:56;;;;;;;4.37;1.70;;;;;;;-141.84;96.21;80733.66;5041505;28;20237;-60
2023/12/31 05:38:24;;;;;;;2.17;1.53;;;;;;;-141.84;96.88;83112.00;5044324;28;20252;-60
2023/12/31 05:40:53;;;;;;;2.83;1.70;;;;;;;-141.84;96.89;83112.00;5043589;28;20225;-59
2023/12/31 05:43:21;;;;;;;3.17;1.87;;;;;;;-141.84;96.40;82847.66;5041721;28;20208;-59
2023/12/31 05:45:50;;;;;;;2.17;1.77;;;;;;;-141.84;96.24;82054.78;5041956;28;20231;-59
2023/12/31 05:48:18;;;;;;;2.40;1.47;;;;;;;-141.84;95.66;80205.34;5050187;28;20237;-60
2023/12/31 05:50:47;;;;;;;2.20;1.80;;;;;;;-141.84;96.28;81790.53;5049788;28;20228;-59
2023/12/31 05:53:17;;;;;;;2.33;2.00;;;;;;;-141.84;96.49;82583.34;5050086;28;20854;-59
2023/12/31 05:55:47;;;;;;;3.33;1.80;;;;;;;-141.84;96.17;82319.06;5047911;28;20251;-61
2023/12/31 05:58:16;;;;;;;2.37;1.53;;;;;;;-141.84;96.12;81526.28;5050423;28;20189;-59
2023/12/31 06:00:44;;;;;;;2.40;1.93;;;;;;;-141.84;96.12;81790.53;5049640;28;20303;-59
2023/12/31 06:03:13;;;;;;;2.60;1.50;;;;;;;-141.84;95.11;78356.72;5049727;28;20217;-60
2023/12/31 06:05:42;;;;;;;3.00;1.70;;;;;;;-141.84;95.73;80205.34;5049765;28;20229;-59
2023/12/31 06:08:10;;;;;;;3.33;1.70;;;;;;;-141.84;94.79;78092.72;5049496;28;20221;-60
2023/12/31 06:10:40;;;;;;;1.83;1.50;;;;;;;-141.84;95.29;78092.72;5049634;28;20597;-60
2023/12/31 06:13:09;;;;;;;3.33;1.60;;;;;;;-141.84;96.08;81262.06;5041276;28;20201;-60
2023/12/31 06:15:37;;;;;;;2.67;1.73;;;;;;;-141.84;95.67;79941.19;5049495;28;20224;-60
2023/12/31 06:18:06;;;;;;;2.73;1.80;;;;;;;-141.84;95.69;79412.97;5049307;28;20664;-59
2023/12/31 06:20:35;;;;;;;1.80;1.70;;;;;;;-141.84;96.08;80733.66;5049639;28;20227;-60
2023/12/31 06:23:03;;;;;;;1.77;1.50;;;;;;;-141.84;95.75;80205.34;5049214;28;20241;-62
2023/12/31 06:25:32;;;;;;;2.23;1.77;;;;;;;-141.84;95.90;80469.50;5049455;28;20201;-60
2023/12/31 06:28:02;;;;;;;4.10;2.10;;;;;;;-141.84;96.71;83112.00;5049796;28;20189;-62
2023/12/31 06:30:31;;;;;;;3.53;1.77;;;;;;;-141.84;96.60;83376.34;5049359;28;20329;-62
2023/12/31 06:32:59;;;;;;;2.43;1.43;;;;;;;-141.84;95.61;79412.97;5049067;28;20283;-60
2023/12/31 06:35:28;;;;;;;2.13;1.70;;;;;;;-141.84;95.22;78884.81;5049227;28;20229;-60
2023/12/31 06:37:57;;;;;;;3.50;2.43;;;;;;;-141.84;95.65;79941.19;5049343;28;20307;-59
2023/12/31 06:40:25;;;;;;;3.03;2.00;;;;;;;-141.84;95.70;79941.19;5049814;28;20822;-60
2023/12/31 06:42:54;;;;;;;3.17;1.90;;;;;;;-141.84;96.31;81262.06;5049014;28;20221;-59
2023/12/31 06:45:24;;;;;;;2.97;2.20;;;;;;;-141.84;96.39;82847.66;5049333;28;20359;-60
2023/12/31 06:47:52;;;;;;;2.67;1.97;;;;;;;-141.84;96.13;81526.28;5040954;28;20711;-60
2023/12/31 06:50:21;;;;;;;2.60;2.10;;;;;;;-141.84;96.23;81790.53;5049288;28;20225;-60
2023/12/31 06:52:49;;;;;;;2.43;2.23;;;;;;;-141.84;97.10;83640.72;5049164;28;20225;-59
2023/12/31 06:55:19;;;;;;;2.90;2.27;;;;;;;-141.84;97.14;84962.78;5049289;28;20217;-61
2023/12/31 06:57:49;;;;;;;3.67;2.87;;;;;;;-141.84;96.42;82319.06;5049204;28;20223;-59
2023/12/31 07:00:18;;;;;;;2.90;2.60;;;;;;;-141.84;95.07;78092.72;5048825;28;20236;-60
2023/12/31 07:02:48;;;;;;;3.47;2.50;;;;;;;-141.84;97.03;83112.00;5049228;28;20282;-60
2023/12/31 07:05:16;;;;;;;4.77;2.80;;;;;;;-141.84;97.10;83905.09;5049224;28;20259;-60
2023/12/31 07:07:46;;;;;;;3.00;2.60;;;;;;;-141.84;97.61;85491.75;5048814;28;20286;-60
2023/12/31 07:10:14;;;;;;;3.73;2.73;;;;;;;-141.84;96.46;83112.00;5049471;28;20577;-60
2023/12/31 07:12:43;;;;;;;3.07;2.60;;;;;;;-141.84;97.19;83905.09;5049288;28;20233;-60
2023/12/31 07:15:11;;;;;;;3.87;2.37;;;;;;;-141.84;97.68;85756.25;5048731;28;20704;-60
2023/12/31 07:17:40;;;;;;;3.80;2.57;;;;;;;-141.84;98.05;86814.44;5048807;28;20228;-60
2023/12/31 07:20:12;;;;;;;2.90;2.27;;;;;;;-141.84;98.55;88137.56;5048573;28;20268;-59
2023/12/31 07:22:40;;;;;;;2.77;2.03;;;;;;;-141.84;99.95;91844.63;5048803;28;20284;-60
2023/12/31 07:25:09;;;;;;;3.63;2.23;;;;;;;-141.84;100.00;92904.41;5048601;28;20190;-60
2023/12/31 07:27:38;;;;;;;4.17;2.50;;;;;;;-141.84;100.00;93964.47;5049636;28;20253;-60
2023/12/31 07:30:07;;;;;;;3.57;2.50;;;;;;;-141.84;98.44;88931.63;5052346;28;20275;-60
2023/12/31 07:32:36;;;;;;;3.63;2.50;;;;;;;-141.84;99.43;90520.28;5052512;28;20701;-59
2023/12/31 07:35:05;;;;;;;3.30;2.70;;;;;;;-141.84;99.67;91579.72;5051993;28;20248;-60
2023/12/31 07:37:38;;;;;;;3.60;2.43;;;;;;;-141.84;99.20;91314.81;5052910;28;20233;-60
2023/12/31 07:40:08;;;;;;;2.77;2.37;;;;;;;-141.84;99.90;92639.44;5052693;28;20182;-59
2023/12/31 07:42:38;;;;;;;3.37;2.63;;;;;;;-141.84;98.58;90255.47;5043153;28;20221;-59
2023/12/31 07:45:07;;;;;;;3.40;2.70;;;;;;;-141.84;96.85;86020.75;5047510;28;20217;-59
2023/12/31 07:47:38;;;;;;;3.93;2.47;;;;;;;-141.84;94.03;77300.78;5049661;28;20764;-59
2023/12/31 07:50:07;;;;;;;3.57;2.50;;;;;;;-141.84;92.67;70443.78;5052246;28;20322;-60
2023/12/31 07:52:37;;;;;;;3.47;2.27;;;;;;;-141.84;92.69;70443.78;5052360;28;20193;-60
2023/12/31 07:55:08;;;;;;;3.83;2.37;;;;;;;-141.84;91.73;68072.97;5051938;28;20221;-59
2023/12/31 07:57:38;;;;;;;3.63;2.27;;;;;;;-141.84;90.14;59391.97;5052186;28;20701;-59
2023/12/31 08:00:08;;;;;;;2.40;2.20;;;;;;;-141.84;88.81;53090.44;5051547;28;20217;-60
2023/12/31 08:02:37;;;;;;;2.27;2.07;;;;;;;-141.84;87.81;46275.03;5051930;28;20229;-60
2023/12/31 08:05:06;;;;;;;2.57;2.13;;;;;;;-141.84;86.90;41024.09;5051854;28;20260;-60
2023/12/31 08:07:36;;;;;;;3.60;2.30;;;;;;;-141.84;85.22;30696.03;5051877;28;20302;-60
2023/12/31 08:10:05;;;;;;;2.33;2.10;;;;;;;-141.84;86.72;37727.41;5052558;28;20284;-60
2023/12/31 08:12:34;;;;;;;3.50;2.53;;;;;;;-141.84;86.41;38119.44;5051729;28;20271;-59
2023/12/31 08:15:02;;;;;;;2.73;2.53;;;;;;;-141.84;86.11;34325.41;5051200;28;20763;-60
2023/12/31 08:17:31;;;;;;;3.00;2.53;;;;;;;-141.84;86.03;34606.91;5051743;28;20225;-60
2023/12/31 08:20:00;;;;;;;3.93;2.47;;;;;;;-141.84;85.49;31892.53;5051643;28;20233;-61
2023/12/31 08:22:28;;;;;;;2.77;2.47;;;;;;;-141.84;84.76;28395.75;5052332;28;20194;-61
2023/12/31 08:25:00;;;;;;;3.03;2.60;;;;;;;-141.84;85.22;29528.41;5051671;28;20221;-60
2023/12/31 08:27:28;;;;;;;2.67;2.17;;;;;;;-141.84;82.83;24428.00;5051413;28;20244;-62
2023/12/31 08:29:57;;;;;;;3.57;2.50;;;;;;;-141.84;82.34;21734.88;5050945;28;20621;-60
2023/12/31 08:32:28;;;;;;;3.43;2.80;;;;;;;-141.84;81.68;21285.53;5051659;28;20359;-61
2023/12/31 08:34:57;;;;;;;2.27;2.07;;;;;;;-141.84;81.38;20976.53;5050881;28;20237;-61
2023/12/31 08:37:25;;;;;;;4.33;2.47;;;;;;;-141.84;81.73;21157.47;5052103;28;20248;-61
2023/12/31 08:39:54;;;;;;;3.83;2.40;;;;;;;-141.84;81.24;21002.94;5049931;28;20354;-60
2023/12/31 08:42:24;;;;;;;3.00;2.33;;;;;;;-141.84;80.74;20391.06;5050948;28;20221;-59
2023/12/31 08:44:52;;;;;;;3.17;2.67;;;;;;;-141.84;80.46;20078.06;5045030;28;20271;-60
2023/12/31 08:47:34;;;;;;;2.30;2.07;;;;;;;-141.84;78.07;19220.44;5050907;28;20229;-61
2023/12/31 08:50:09;;;;;;;2.70;2.40;;;;;;;-141.84;78.18;19254.97;5051125;28;20224;-60
2023/12/31 08:52:41;;;;;;;3.17;2.70;;;;;;;-141.84;78.84;19423.66;5051346;28;20181;-60
2023/12/31 08:55:09;;;;;;;3.50;2.43;;;;;;;-141.84;77.83;19232.63;5048722;28;20233;-60
2023/12/31 08:57:43;;;;;;;2.33;2.13;;;;;;;-141.84;78.89;19403.31;5050943;28;20712;-60
2023/12/31 09:00:13;;;;;;;2.67;2.47;;;;;;;-141.84;76.90;19072.09;5049039;28;20312;-60
2023/12/31 09:02:42;;;;;;;5.10;2.93;;;;;;;-141.84;76.21;18927.84;5050678;28;20224;-60
2023/12/31 09:05:10;;;;;;;4.20;2.90;;;;;;;-141.84;76.77;18988.78;5050590;28;20249;-60
2023/12/31 09:07:41;;;;;;;4.80;2.70;;;;;;;-141.84;76.91;19053.81;5050387;28;20197;-60
2023/12/31 09:10:10;;;;;;;4.57;3.20;;;;;;;-141.84;76.88;19047.72;5051254;28;20205;-60
2023/12/31 09:12:40;;;;;;;3.03;2.40;;;;;;;-141.84;77.53;19102.56;5050450;28;20244;-60
2023/12/31 09:15:09;;;;;;;4.17;2.83;;;;;;;-141.84;77.35;19167.59;5042211;28;20330;-60
2023/12/31 09:17:38;;;;;;;3.67;3.00;;;;;;;-141.84;76.93;19061.94;5050305;28;20805;-60
2023/12/31 09:20:08;;;;;;;3.13;2.80;;;;;;;-141.84;76.24;18996.91;5050288;28;20225;-61
2023/12/31 09:22:37;;;;;;;3.73;2.83;;;;;;;-141.84;76.53;19023.34;5050457;28;20193;-61
2023/12/31 09:25:06;;;;;;;4.87;3.10;;;;;;;-141.84;75.02;18903.44;5050298;28;20240;-60
2023/12/31 09:27:35;;;;;;;4.27;3.07;;;;;;;-141.84;75.45;18944.09;5050128;28;20226;-61
2023/12/31 09:30:07;;;;;;;4.43;2.90;;;;;;;-141.84;74.08;18834.38;5049797;28;20227;-60
2023/12/31 09:32:35;;;;;;;4.67;2.90;;;;;;;-141.84;73.62;18830.31;5050448;28;20232;-61
2023/12/31 09:35:04;;;;;;;2.80;2.50;;;;;;;-141.84;72.09;18759.19;5049641;28;20233;-60
2023/12/31 09:37:34;;;;;;;2.30;2.10;;;;;;;-141.84;70.88;18720.59;5050357;28;20205;-60
2023/12/31 09:40:03;;;;;;;4.43;2.60;;;;;;;-141.84;70.00;18690.09;5047314;28;20662;-60
2023/12/31 09:42:42;;;;;;;2.80;2.50;;;;;;;-141.84;68.69;18684.00;5049213;28;20244;-60
2023/12/31 09:45:15;;;;;;;3.13;2.03;;;;;;;-141.84;69.12;18690.09;5046621;28;20217;-60
2023/12/31 09:47:46;;;;;;;3.37;2.17;;;;;;;-141.84;68.59;18700.25;5040549;28;20229;-60
2023/12/31 09:50:15;;;;;;;3.37;2.40;;;;;;;-141.84;69.17;18667.75;5043364;28;20233;-59
2023/12/31 09:52:47;;;;;;;2.40;2.20;;;;;;;-141.84;67.48;18665.72;5045986;28;20198;-60
2023/12/31 09:55:18;;;;;;;2.50;2.17;;;;;;;-141.84;67.80;18659.63;5045762;28;20294;-60
2023/12/31 09:57:48;;;;;;;2.40;2.07;;;;;;;-141.84;67.60;18667.75;5042796;28;20772;-59
2023/12/31 10:00:18;;;;;;;3.47;2.40;;;;;;;-141.84;65.70;18696.19;5045706;28;20225;-60
2023/12/31 10:02:49;;;;;;;3.00;2.33;;;;;;;-141.84;65.95;18663.69;5041134;28;20882;-60
2023/12/31 10:05:21;;;;;;;2.77;2.33;;;;;;;-141.84;66.36;18692.13;5043629;28;20264;-60
2023/12/31 10:07:49;;;;;;;2.97;2.60;;;;;;;-141.84;65.30;18690.09;5040291;28;20198;-60
2023/12/31 10:10:20;;;;;;;3.23;2.40;;;;;;;-141.84;65.16;18688.06;5042606;28;20197;-59
2023/12/31 10:12:49;;;;;;;2.80;2.50;;;;;;;-141.84;64.85;18688.06;5049267;28;20221;-59
2023/12/31 10:15:20;;;;;;;3.00;2.57;;;;;;;-141.84;65.29;18696.19;5045185;28;20272;-59
2023/12/31 10:17:49;;;;;;;2.47;2.27;;;;;;;-141.84;64.97;18675.88;5048336;28;20225;-60
2023/12/31 10:20:21;;;;;;;3.40;2.17;;;;;;;-141.84;63.38;18686.03;5039759;28;20229;-60
2023/12/31 10:22:50;;;;;;;2.60;2.20;;;;;;;-141.84;63.75;18708.41;5040781;28;20221;-60
2023/12/31 10:25:22;;;;;;;4.40;2.77;;;;;;;-141.84;62.79;18659.63;5048856;28;20241;-61
2023/12/31 10:27:50;;;;;;;3.93;2.63;;;;;;;-141.84;63.35;18690.09;5049327;28;20213;-60
2023/12/31 10:30:21;;;;;;;3.47;2.70;;;;;;;-141.84;63.15;18708.41;5047850;28;20708;-59
2023/12/31 10:32:50;;;;;;;3.77;3.20;;;;;;;-141.84;64.63;18692.13;5049408;28;20313;-59
2023/12/31 10:35:22;;;;;;;2.80;2.40;;;;;;;-141.84;65.18;18684.00;5043356;28;20236;-65
2023/12/31 10:38:03;;;;;;;2.87;2.03;;;;;;;-141.84;64.83;18663.69;5043244;28;20228;-61
2023/12/31 10:40:34;;;;;;;5.17;2.57;;;;;;;-141.84;65.07;18688.06;5042745;28;20213;-62
2023/12/31 10:43:08;;;;;;;3.27;2.20;;;;;;;-141.84;65.17;18667.75;5041637;28;20217;-62
2023/12/31 10:45:40;;;;;;;3.83;2.30;;;;;;;-141.84;65.50;18671.81;5045441;28;20232;-60
2023/12/31 10:48:11;;;;;;;3.00;2.60;;;;;;;-141.84;66.44;18720.59;5047363;28;20225;-60
2023/12/31 10:50:41;;;;;;;4.77;2.50;;;;;;;-141.84;67.38;18694.16;5048421;28;20925;-59
2023/12/31 10:53:12;;;;;;;3.30;2.33;;;;;;;-141.84;68.17;18704.31;5048660;28;20240;-60
2023/12/31 10:55:42;;;;;;;2.87;2.50;;;;;;;-141.84;69.04;18740.91;5048775;28;20200;-59
2023/12/31 10:58:14;;;;;;;2.60;2.40;;;;;;;-141.84;71.73;18791.69;5042825;28;20186;-59
2023/12/31 11:00:45;;;;;;;3.03;2.40;;;;;;;-141.84;73.24;18891.25;5043001;28;20221;-60
2023/12/31 11:03:14;;;;;;;3.33;2.10;;;;;;;-141.84;73.31;18860.78;5051165;28;20217;-60
2023/12/31 11:05:45;;;;;;;5.20;2.20;;;;;;;-141.84;74.95;18982.69;5049549;28;20221;-60
2023/12/31 11:08:15;;;;;;;2.73;2.50;;;;;;;-141.84;73.62;18919.69;5045839;28;20316;-60
2023/12/31 11:10:44;;;;;;;2.70;2.27;;;;;;;-141.84;73.50;18879.06;5051092;28;20239;-60
2023/12/31 11:13:16;;;;;;;4.30;2.80;;;;;;;-141.84;73.53;18862.81;5053503;28;20196;-60
2023/12/31 11:15:50;;;;;;;2.73;2.30;;;;;;;-141.84;74.98;18990.81;5051794;28;20221;-60
2023/12/31 11:18:44;;;;;;;2.70;2.50;;;;;;;-141.84;75.06;19000.97;5053117;28;20216;-60
2023/12/31 11:21:24;;;;;;;3.60;2.50;;;;;;;-141.84;75.75;19066.00;5048025;28;20312;-60
2023/12/31 11:24:04;;;;;;;3.50;2.63;;;;;;;-141.84;76.01;19120.88;5047736;28;20228;-60
2023/12/31 11:26:33;;;;;;;2.73;2.40;;;;;;;-141.84;73.92;18913.59;5044234;28;20253;-60